Stowmarket, United Kingdom
Current Conditions -  °F | °C
As of 12:50 AM on Tuesday 25 Nov 2014 (Local Time) from EGUW Reporting Station
Haze Haze  
Wind Chill: 37°   Ceiling: 18000
Heat Index: 37°   Visibility: 2mi
Dew Point: 37°   Wind: 3mph
Humidity: 100%   Direction: 360°N
Pressure: 30.3"   Gusts: NA
Location:  52.19°N, 1°E
Report Text: EGUW 250050Z AUTO 36003KT 3300 BR BKN180/// 03/03 Q1026
Loading
Personal Weather Stations






























Interactive Weather Map New forecast layout! Learn more

10-Day Weather Forecast

Advertisements
Track Severe Weather on mobile